createdAt,value
2019-02-23T00:00:20.031Z,5.33
2019-02-23T00:05:26.979Z,5.60
2019-02-23T00:10:32.463Z,6.00
2019-02-23T00:15:37.877Z,5.40
2019-02-23T00:20:43.366Z,4.87
2019-02-23T00:25:48.793Z,5.67
2019-02-23T00:30:54.214Z,5.37
2019-02-23T00:35:59.610Z,5.00
2019-02-23T00:41:05.180Z,5.80
2019-02-23T00:46:10.609Z,5.40
2019-02-23T00:51:16.028Z,8.17
2019-02-23T00:56:21.434Z,6.30
2019-02-23T01:01:26.878Z,6.47
2019-02-23T01:06:32.242Z,7.43
2019-02-23T01:11:37.632Z,6.47
2019-02-23T01:16:43.039Z,6.10
2019-02-23T01:21:48.445Z,5.40
2019-02-23T01:26:53.871Z,6.83
2019-02-23T01:31:59.323Z,6.47
2019-02-23T01:37:04.807Z,6.80
2019-02-23T01:42:10.218Z,7.57
2019-02-23T01:47:15.537Z,7.07
2019-02-23T01:52:20.891Z,7.43
2019-02-23T01:57:26.233Z,8.13
2019-02-23T02:02:32.805Z,6.40
2019-02-23T02:07:38.274Z,7.63
2019-02-23T02:12:43.767Z,7.77
2019-02-23T02:17:50.180Z,6.93
2019-02-23T02:22:55.661Z,6.27
2019-02-23T02:28:01.073Z,5.83
2019-02-23T02:33:06.426Z,4.93
2019-02-23T02:38:11.871Z,6.13
2019-02-23T02:43:17.242Z,7.17
2019-02-23T02:48:22.575Z,6.07
2019-02-23T02:53:27.996Z,5.97
2019-02-23T02:58:33.331Z,6.63
2019-02-23T03:03:38.685Z,7.00
2019-02-23T03:08:44.169Z,6.57
2019-02-23T03:13:49.556Z,5.30
2019-02-23T03:18:56.027Z,5.93
2019-02-23T03:24:01.353Z,6.63
2019-02-23T03:29:06.735Z,6.23
2019-02-23T03:34:12.169Z,5.87
2019-02-23T03:39:17.743Z,5.87
2019-02-23T03:44:23.081Z,5.07
2019-02-23T03:49:28.505Z,6.30
2019-02-23T03:54:33.920Z,6.17
2019-02-23T03:59:39.413Z,6.77
2019-02-23T04:04:44.831Z,6.20
2019-02-23T04:09:50.234Z,6.60
2019-02-23T04:14:55.775Z,6.53
2019-02-23T04:20:01.193Z,6.30
2019-02-23T04:25:10.429Z,6.37
2019-02-23T04:30:15.835Z,6.87
2019-02-23T04:35:21.331Z,5.87
2019-02-23T04:40:26.815Z,6.67
2019-02-23T04:45:32.212Z,6.80
2019-02-23T04:50:37.543Z,7.57
2019-02-23T04:55:43.028Z,7.47
2019-02-23T05:00:48.428Z,7.77
2019-02-23T05:05:53.846Z,6.50
2019-02-23T05:10:59.396Z,8.57
2019-02-23T05:16:04.804Z,9.73
2019-02-23T05:21:10.203Z,9.40
2019-02-23T05:26:15.543Z,6.60
2019-02-23T05:31:22.247Z,6.70
2019-02-23T05:36:27.852Z,7.23
2019-02-23T05:41:33.272Z,7.97
2019-02-23T05:46:38.864Z,8.90
2019-02-23T05:51:44.363Z,7.83
2019-02-23T05:56:49.756Z,7.47
2019-02-23T06:01:55.151Z,8.17
2019-02-23T06:07:00.474Z,8.23
2019-02-23T06:12:05.854Z,11.17
2019-02-23T06:17:11.327Z,12.60
2019-02-23T06:22:16.688Z,12.60
2019-02-23T06:27:22.109Z,10.72
2019-02-23T06:32:27.519Z,13.80
2019-02-23T06:37:32.932Z,9.03
2019-02-23T06:42:38.291Z,11.28
2019-02-23T06:47:43.703Z,10.43
2019-02-23T06:52:49.132Z,10.38
2019-02-23T06:57:54.551Z,10.08
2019-02-23T07:02:59.902Z,8.90
2019-02-23T07:08:06.693Z,9.05
2019-02-23T07:13:12.031Z,7.47
2019-02-23T07:18:17.440Z,6.33
2019-02-23T07:23:23.023Z,7.10
2019-02-23T07:28:28.363Z,7.40
2019-02-23T07:33:33.783Z,7.45
2019-02-23T07:38:39.123Z,8.55
2019-02-23T07:43:44.543Z,7.58
2019-02-23T07:48:49.878Z,5.83
2019-02-23T07:53:55.290Z,7.30
2019-02-23T07:59:00.635Z,6.53
2019-02-23T08:04:06.164Z,5.90
2019-02-23T08:09:11.913Z,7.33
2019-02-23T08:14:17.464Z,7.75
2019-02-23T08:19:22.949Z,6.90
2019-02-23T08:24:28.289Z,6.85
2019-02-23T08:29:33.642Z,7.33
2019-02-23T08:34:38.986Z,9.03
2019-02-23T08:39:44.339Z,11.63
2019-02-23T08:44:49.820Z,7.53
2019-02-23T08:49:55.229Z,7.83
2019-02-23T08:55:00.711Z,8.88
2019-02-23T09:00:14.898Z,8.70
2019-02-23T09:05:20.414Z,6.40
2019-02-23T09:10:25.902Z,6.05
2019-02-23T09:15:32.398Z,6.95
2019-02-23T09:20:37.732Z,7.90
2019-02-23T09:25:43.075Z,5.75
2019-02-23T09:30:48.489Z,2.67
2019-02-23T09:35:53.897Z,3.27
2019-02-23T09:40:59.246Z,3.12
2019-02-23T09:46:04.892Z,4.67
2019-02-23T09:51:10.586Z,4.53
2019-02-23T09:56:15.922Z,5.65
2019-02-23T10:01:21.421Z,5.80
2019-02-23T10:06:26.829Z,6.80
2019-02-23T10:11:32.394Z,4.87
2019-02-23T10:16:37.876Z,7.70
2019-02-23T10:21:43.260Z,6.58
2019-02-23T10:26:49.280Z,6.67
2019-02-23T10:31:54.860Z,5.25
2019-02-23T10:37:01.093Z,5.70
2019-02-23T10:42:06.453Z,4.00
2019-02-23T10:47:12.706Z,4.42
2019-02-23T10:52:18.527Z,3.92
2019-02-23T10:57:24.876Z,3.85
2019-02-23T11:02:30.292Z,5.03
2019-02-23T11:07:35.997Z,4.45
2019-02-23T11:12:41.425Z,3.60
2019-02-23T11:17:48.334Z,3.98
2019-02-23T11:22:53.906Z,4.37
2019-02-23T11:27:59.381Z,4.23
2019-02-23T11:33:04.836Z,3.95
2019-02-23T11:38:11.196Z,4.20
2019-02-23T11:43:16.674Z,3.85
2019-02-23T11:48:22.019Z,4.22
2019-02-23T11:53:27.393Z,5.22
2019-02-23T11:58:33.354Z,4.53
2019-02-23T12:03:38.775Z,5.97
2019-02-23T12:08:45.503Z,5.37
2019-02-23T12:13:50.843Z,4.97
2019-02-23T12:18:56.184Z,3.62
2019-02-23T12:24:06.107Z,4.72
2019-02-23T12:29:08.598Z,4.17
2019-02-23T12:34:14.024Z,4.22
2019-02-23T12:39:19.427Z,4.35
2019-02-23T12:44:24.843Z,7.90
2019-02-23T12:49:30.250Z,5.47
2019-02-23T12:54:35.753Z,5.30
2019-02-23T12:59:41.376Z,6.80
2019-02-23T13:04:46.788Z,5.67
2019-02-23T13:09:52.251Z,6.10
2019-02-23T13:15:09.943Z,6.55
2019-02-23T13:20:39.622Z,5.60
2019-02-23T13:25:56.887Z,7.70
2019-02-23T13:31:20.218Z,6.75
2019-02-23T13:37:02.699Z,6.35
2019-02-23T13:42:36.932Z,8.25
2019-02-23T13:47:54.479Z,6.25
2019-02-23T13:53:22.399Z,6.45
2019-02-23T13:58:34.108Z,5.58
2019-02-23T14:03:58.693Z,10.28
2019-02-23T14:09:28.612Z,5.25
2019-02-23T14:14:56.569Z,7.67
2019-02-23T14:20:22.919Z,4.72
2019-02-23T14:25:40.648Z,4.47
2019-02-23T14:30:58.271Z,5.00
2019-02-23T14:36:36.783Z,5.15
2019-02-23T14:41:54.516Z,5.25
2019-02-23T14:47:03.089Z,5.35
2019-02-23T14:52:32.551Z,5.10
2019-02-23T14:58:03.623Z,5.83
2019-02-23T15:03:30.176Z,7.35
2019-02-23T15:09:09.112Z,4.83
2019-02-23T15:14:32.329Z,6.03
2019-02-23T15:20:16.299Z,4.83
2019-02-23T15:25:57.756Z,6.17
2019-02-23T15:31:15.052Z,5.08
2019-02-23T15:36:44.885Z,5.22
2019-02-23T15:42:05.058Z,5.08
2019-02-23T15:47:34.475Z,5.20
2019-02-23T15:52:40.088Z,4.75
2019-02-23T15:57:46.445Z,4.65
2019-02-23T16:02:51.859Z,6.15
2019-02-23T16:07:57.197Z,4.58
2019-02-23T16:13:02.682Z,6.83
2019-02-23T16:18:08.055Z,9.38
2019-02-23T16:23:13.475Z,6.42
2019-02-23T16:28:18.937Z,6.60
2019-02-23T16:33:24.376Z,8.65
2019-02-23T16:38:29.884Z,25.32
2019-02-23T16:43:35.387Z,59.85
2019-02-23T16:48:41.703Z,14.45
2019-02-23T16:53:48.962Z,7.47
2019-02-23T16:58:54.312Z,10.08
2019-02-23T17:03:59.781Z,12.50
2019-02-23T17:09:06.434Z,11.55
2019-02-23T17:14:13.440Z,13.38
2019-02-23T17:19:20.108Z,13.60
2019-02-23T17:24:26.763Z,18.90
2019-02-23T17:29:32.119Z,54.53
2019-02-23T17:34:37.487Z,31.93
2019-02-23T17:39:42.976Z,16.05
2019-02-23T17:44:48.696Z,7.45
2019-02-23T17:49:54.318Z,8.55
2019-02-23T17:54:59.751Z,9.90
2019-02-23T18:00:08.300Z,9.25
2019-02-23T18:05:14.304Z,8.83
2019-02-23T18:10:19.995Z,8.13
2019-02-23T18:15:25.433Z,9.50
2019-02-23T18:20:30.783Z,19.65
2019-02-23T18:25:36.755Z,51.28
2019-02-23T18:30:42.581Z,30.62
2019-02-23T18:35:49.124Z,21.27
2019-02-23T18:40:54.758Z,23.37
2019-02-23T18:46:00.241Z,20.97
2019-02-23T18:51:05.690Z,20.10
2019-02-23T18:56:11.234Z,20.82
2019-02-23T19:01:16.731Z,22.25
2019-02-23T19:06:22.273Z,20.17
2019-02-23T19:11:27.770Z,21.13
2019-02-23T19:16:33.463Z,24.43
2019-02-23T19:21:39.296Z,23.57
2019-02-23T19:26:45.122Z,20.23
2019-02-23T19:31:51.306Z,22.87
2019-02-23T19:36:56.747Z,21.60
2019-02-23T19:42:03.126Z,21.02
2019-02-23T19:47:09.872Z,22.02
2019-02-23T19:52:17.272Z,19.35
2019-02-23T19:57:22.747Z,19.20
2019-02-23T20:02:28.474Z,19.05
2019-02-23T20:07:34.059Z,23.27
2019-02-23T20:12:39.711Z,21.68
2019-02-23T20:17:46.994Z,25.10
2019-02-23T20:22:52.677Z,19.40
2019-02-23T20:27:58.517Z,20.33
2019-02-23T20:33:04.137Z,26.15
2019-02-23T20:38:19.598Z,20.57
2019-02-23T20:43:25.150Z,20.93
2019-02-23T20:48:30.711Z,27.30
2019-02-23T20:53:36.420Z,27.58
2019-02-23T20:58:41.839Z,24.10
2019-02-23T21:03:47.183Z,29.00
2019-02-23T21:08:52.559Z,28.00
2019-02-23T21:13:57.981Z,23.30
2019-02-23T21:19:03.526Z,20.05
2019-02-23T21:24:09.030Z,19.15
2019-02-23T21:29:14.788Z,18.48
2019-02-23T21:34:21.131Z,18.23
2019-02-23T21:39:26.567Z,18.42
2019-02-23T21:44:32.019Z,18.67
2019-02-23T21:49:37.354Z,17.42
2019-02-23T21:54:42.686Z,22.02
2019-02-23T21:59:48.021Z,21.30
2019-02-23T22:04:53.449Z,18.07
2019-02-23T22:09:59.016Z,17.53
2019-02-23T22:15:06.394Z,22.00
2019-02-23T22:20:12.671Z,25.05
2019-02-23T22:25:18.011Z,28.10
2019-02-23T22:30:23.731Z,26.03
2019-02-23T22:35:29.089Z,25.77
2019-02-23T22:40:36.046Z,25.30
2019-02-23T22:45:41.396Z,25.90
2019-02-23T22:50:46.739Z,22.82
2019-02-23T22:55:52.160Z,26.68
2019-02-23T23:01:00.191Z,24.97
2019-02-23T23:06:06.271Z,24.07
2019-02-23T23:11:11.777Z,23.00
2019-02-23T23:16:17.224Z,24.40
2019-02-23T23:21:22.706Z,22.17
2019-02-23T23:26:28.180Z,18.82
2019-02-23T23:31:33.663Z,18.60
2019-02-23T23:36:39.008Z,17.87
2019-02-23T23:41:44.651Z,16.50
2019-02-23T23:46:50.291Z,14.73
2019-02-23T23:51:55.789Z,16.25
2019-02-23T23:57:01.329Z,16.35
